Main page
METAR-TAF:

METAR-TAF

Airports :

Abadan-Ayatollah Jami International Airport

Abadan, Iran

latitude: 30-22N, longitude: 048-15E, elevation: 3 m

Current weather observation

The report was made 36 minutes ago, at 06:00 UTC
Wind 4 kt from the North/Northwest
Temperature 12°C
Humidity 67%
Pressure 1019 hPa
Visibility: 6000 m

METAR: OIAA 230600Z 34004KT 6000 NSC 12/06 Q1019

Time: 10:06 (06:36 UTC)

Forecast

The report was made 1 hour and 6 minutes ago, at 05:30 UTC
Forecast valid from 23 at 06 UTC to 24 at 12 UTC
Wind 4 kt from the Northwest
Visibility: 8000 m
Becoming
from 23 at 23 UTC to 24 at 01 UTC
Visibility: 3000 m
Becoming
from 24 at 06 UTC to 24 at 08 UTC
Visibility: 7000 m

TAF: OIAA 230530Z 2306/2412 32004KT 8000 NSC BECMG 2323/2401 3000 BR/HZ BECMG 2406/2408 7000

Weather observations and forecasts of more than 4000 airports (METAR and TAF reports).

The available stations are represented by yellow and red dots on the map.

Hover mouse over dot to see the name of the station.

Then click to see weather observations and forecasts.

To change the map : click on the green buttons with a black cross to zoom in, on the green button with a dash to zoom out, or on the green arrows for adjacent maps.


METAR-TAF: